Time;durP1;ratioP1;P1;durP2;ratioP2;P2;SDS_P1;SDS_P2;PMS_P1;PMS_P2;Temp;Humidity;BMP_temperature;BMP_pressure;BME280_temperature;BME280_humidity;BME280_pressure;Samples;Min_cycle;Max_cycle;Signal;HPM_P1;HPM_P2
2023/04/30 00:02:24;;;;;;;6.63;3.80;;;8.10;84.00;;;;;;4998720;28;20064;-79
2023/04/30 00:04:49;;;;;;;9.80;3.85;;;8.00;84.30;;;;;;4998344;28;20494;-82
2023/04/30 00:07:15;;;;;;;9.23;4.18;;;8.00;84.40;;;;;;5014521;28;20053;-82
2023/04/30 00:09:41;;;;;;;8.07;4.30;;;8.00;84.50;;;;;;4998275;28;20050;-80
2023/04/30 00:12:06;;;;;;;8.88;3.85;;;8.00;84.90;;;;;;4998284;28;20042;-80
2023/04/30 00:14:32;;;;;;;7.85;4.00;;;8.00;85.10;;;;;;5014368;28;20509;-82
2023/04/30 00:16:58;;;;;;;11.38;4.50;;;8.00;84.90;;;;;;5014445;28;20042;-81
2023/04/30 00:19:24;;;;;;;11.75;4.22;;;8.00;85.10;;;;;;4982051;28;20389;-79
2023/04/30 00:21:49;;;;;;;9.00;5.47;;;8.00;85.10;;;;;;5014310;28;20617;-81
2023/04/30 00:24:15;;;;;;;11.88;4.68;;;8.00;84.90;;;;;;4998171;28;20042;-80
2023/04/30 00:26:42;;;;;;;8.85;4.53;;;7.90;84.90;;;;;;4997819;28;20564;-80
2023/04/30 00:29:08;;;;;;;11.50;5.07;;;7.90;85.00;;;;;;5013977;28;20045;-83
2023/04/30 00:31:34;;;;;;;10.70;4.60;;;7.90;85.00;;;;;;4982086;28;20104;-80
2023/04/30 00:34:00;;;;;;;8.55;4.93;;;7.90;85.10;;;;;;4997583;28;20611;-83
2023/04/30 00:36:25;;;;;;;14.18;5.32;;;7.90;85.20;;;;;;5013836;28;20038;-82
2023/04/30 00:38:51;;;;;;;11.98;5.18;;;7.80;85.20;;;;;;5014302;28;20030;-80
2023/04/30 00:41:17;;;;;;;12.80;5.43;;;7.80;85.10;;;;;;4997845;28;20513;-82
2023/04/30 00:43:45;;;;;;;8.27;4.40;;;7.80;85.00;;;;;;5013865;28;20037;-81
2023/04/30 00:46:11;;;;;;;12.88;5.18;;;7.80;85.10;;;;;;5014095;28;20076;-83
2023/04/30 00:48:37;;;;;;;8.20;4.88;;;7.80;85.50;;;;;;5013514;28;20401;-81
2023/04/30 00:51:04;;;;;;;9.95;5.50;;;7.80;85.50;;;;;;5013620;28;20049;-79
2023/04/30 00:53:31;;;;;;;8.52;4.82;;;7.80;85.30;;;;;;4997498;28;20380;-81
2023/04/30 00:55:57;;;;;;;9.43;4.63;;;7.70;85.20;;;;;;5013640;28;20053;-83
2023/04/30 00:58:23;;;;;;;8.30;4.93;;;7.60;85.80;;;;;;4997327;28;20065;-81
2023/04/30 01:00:49;;;;;;;11.20;5.07;;;7.60;85.70;;;;;;4997369;28;20054;-83
2023/04/30 01:03:15;;;;;;;9.63;5.40;;;7.60;85.80;;;;;;5013526;28;20052;-80
2023/04/30 01:05:41;;;;;;;8.90;4.80;;;7.60;85.90;;;;;;5013473;28;20136;-83
2023/04/30 01:08:08;;;;;;;9.65;5.20;;;7.60;85.60;;;;;;5013450;28;20078;-81
2023/04/30 01:10:50;;;;;;;9.60;5.38;;;7.50;85.90;;;;;;4996565;28;20050;-82
2023/04/30 01:13:58;;;;;;;13.18;5.35;;;7.50;86.10;;;;;;5013388;28;20360;-79
2023/04/30 01:16:26;;;;;;;9.63;5.30;;;7.50;86.20;;;;;;5013008;28;20046;-82
2023/04/30 01:19:03;;;;;;;13.88;5.40;;;7.50;86.60;;;;;;5013591;28;20138;-82
2023/04/30 01:21:32;;;;;;;13.65;5.47;;;7.50;86.40;;;;;;4996879;28;20042;-81
2023/04/30 01:24:39;;;;;;;8.70;5.30;;;7.50;87.00;;;;;;4980762;28;20130;-81
2023/04/30 01:27:24;;;;;;;11.52;6.00;;;7.50;87.10;;;;;;4996384;28;20120;-80
2023/04/30 01:29:51;;;;;;;12.73;6.05;;;7.50;86.80;;;;;;4996953;28;20049;-82
2023/04/30 01:32:17;;;;;;;10.88;5.60;;;7.60;87.10;;;;;;5012810;28;20056;-82
2023/04/30 01:34:43;;;;;;;9.88;5.40;;;7.60;87.00;;;;;;4996729;28;20038;-79
2023/04/30 01:37:36;;;;;;;11.55;5.78;;;7.60;87.00;;;;;;5012939;28;20034;-81
2023/04/30 01:40:24;;;;;;;10.23;5.80;;;7.70;86.90;;;;;;5013202;28;20041;-81
2023/04/30 01:43:10;;;;;;;11.15;5.85;;;7.70;87.00;;;;;;4996543;28;20136;-80
2023/04/30 01:45:59;;;;;;;11.00;5.55;;;7.70;86.90;;;;;;5012849;28;20091;-79
2023/04/30 01:48:59;;;;;;;15.13;6.50;;;7.80;86.60;;;;;;5012668;28;20042;-81
2023/04/30 01:51:42;;;;;;;9.65;5.60;;;7.80;86.60;;;;;;5012599;28;20112;-82
2023/04/30 01:54:34;;;;;;;12.32;5.82;;;7.80;87.00;;;;;;4996132;28;20141;-80
2023/04/30 01:57:06;;;;;;;10.02;5.80;;;7.90;86.70;;;;;;5012685;28;20054;-82
2023/04/30 01:59:38;;;;;;;12.40;5.95;;;8.00;86.50;;;;;;4995921;28;20518;-81
2023/04/30 02:02:05;;;;;;;12.32;6.05;;;7.90;86.60;;;;;;5012801;28;20071;-79
2023/04/30 02:04:31;;;;;;;13.45;6.00;;;7.90;87.00;;;;;;4996208;28;20497;-81
2023/04/30 02:06:57;;;;;;;11.07;6.47;;;8.00;87.00;;;;;;5012321;28;20049;-81
2023/04/30 02:09:23;;;;;;;11.45;5.97;;;8.00;86.80;;;;;;5012842;28;20104;-80
2023/04/30 02:11:50;;;;;;;12.48;5.43;;;8.00;86.70;;;;;;5012332;28;20056;-82
2023/04/30 02:14:16;;;;;;;13.57;5.85;;;8.00;86.90;;;;;;4996158;28;20053;-80
2023/04/30 02:16:41;;;;;;;12.48;6.10;;;8.00;87.00;;;;;;4996237;28;20046;-79
2023/04/30 02:19:07;;;;;;;13.60;6.15;;;8.00;86.80;;;;;;4979953;28;20382;-80
2023/04/30 02:21:33;;;;;;;13.45;5.00;;;8.00;86.60;;;;;;4996502;28;20038;-80
2023/04/30 02:23:59;;;;;;;11.80;5.60;;;8.00;86.90;;;;;;5012411;28;20454;-80
2023/04/30 02:26:25;;;;;;;7.03;5.07;;;8.00;86.50;;;;;;4995944;28;20042;-82
2023/04/30 02:28:51;;;;;;;10.88;5.30;;;8.00;86.50;;;;;;4996085;28;20041;-81
2023/04/30 02:31:17;;;;;;;15.30;4.90;;;8.10;86.30;;;;;;5012060;28;20517;-82
2023/04/30 02:33:43;;;;;;;13.07;6.15;;;8.00;86.50;;;;;;5012586;28;20088;-81
2023/04/30 02:36:08;;;;;;;10.05;6.10;;;8.00;86.50;;;;;;5012296;28;20482;-80
2023/04/30 02:38:34;;;;;;;15.35;5.43;;;8.00;86.90;;;;;;4995626;28;20398;-82
2023/04/30 02:41:01;;;;;;;11.50;5.20;;;8.00;86.70;;;;;;4995697;28;20133;-82
2023/04/30 02:43:26;;;;;;;14.75;5.80;;;8.00;86.90;;;;;;4996084;28;20175;-81
2023/04/30 02:45:52;;;;;;;9.77;4.88;;;8.00;86.90;;;;;;4979624;28;20553;-82
2023/04/30 02:48:18;;;;;;;8.98;4.72;;;8.00;86.90;;;;;;5012310;28;20056;-78
2023/04/30 02:50:43;;;;;;;8.13;4.70;;;8.00;86.90;;;;;;5012066;28;20497;-80
2023/04/30 02:53:09;;;;;;;9.90;4.82;;;8.00;86.80;;;;;;4995563;28;20168;-80
2023/04/30 02:55:35;;;;;;;10.50;5.45;;;8.10;86.60;;;;;;4995543;28;20038;-82
2023/04/30 02:58:00;;;;;;;9.82;4.45;;;8.10;86.70;;;;;;4996591;28;20048;-82
2023/04/30 03:00:26;;;;;;;10.20;5.15;;;8.10;86.70;;;;;;4999664;28;20038;-80
2023/04/30 03:02:52;;;;;;;12.30;5.90;;;8.10;86.90;;;;;;4983499;28;20078;-79
2023/04/30 03:05:17;;;;;;;11.60;5.32;;;8.10;87.00;;;;;;4999350;28;20401;-79
2023/04/30 03:07:43;;;;;;;11.30;5.57;;;8.10;87.10;;;;;;4999163;28;20046;-81
2023/04/30 03:10:09;;;;;;;11.63;5.10;;;8.10;87.10;;;;;;5015400;28;20069;-82
2023/04/30 03:12:35;;;;;;;12.05;5.05;;;8.10;87.10;;;;;;4983156;28;20498;-81
2023/04/30 03:15:01;;;;;;;7.47;4.43;;;8.00;87.00;;;;;;4999029;28;20141;-78
2023/04/30 03:17:26;;;;;;;10.43;5.07;;;8.00;86.90;;;;;;5015241;28;20049;-80
2023/04/30 03:19:52;;;;;;;10.98;4.60;;;7.90;87.00;;;;;;4982622;28;20050;-80
2023/04/30 03:22:19;;;;;;;10.52;4.85;;;7.90;87.00;;;;;;4982995;28;20080;-81
2023/04/30 03:24:45;;;;;;;6.95;4.45;;;7.80;86.90;;;;;;4999217;28;20112;-80
2023/04/30 03:27:11;;;;;;;6.57;4.45;;;7.80;86.80;;;;;;4999222;28;20057;-80
2023/04/30 03:29:36;;;;;;;10.25;4.32;;;7.70;86.90;;;;;;5015160;28;20041;-81
2023/04/30 03:32:02;;;;;;;12.80;4.85;;;7.60;86.90;;;;;;5015208;28;20038;-81
2023/04/30 03:34:30;;;;;;;14.93;5.28;;;7.60;87.00;;;;;;4999041;28;20037;-82
2023/04/30 03:36:56;;;;;;;9.32;4.82;;;7.50;87.10;;;;;;5015204;28;20033;-81
2023/04/30 03:39:21;;;;;;;9.68;5.47;;;7.50;87.00;;;;;;5015204;28;20038;-82
2023/04/30 03:41:47;;;;;;;8.48;4.70;;;7.40;87.00;;;;;;5014928;28;20411;-79
2023/04/30 03:44:14;;;;;;;13.02;6.30;;;7.40;87.00;;;;;;5015048;28;20037;-82
2023/04/30 03:46:43;;;;;;;9.88;5.00;;;7.30;87.20;;;;;;5014615;28;20095;-79
2023/04/30 03:49:10;;;;;;;9.75;4.40;;;7.30;87.10;;;;;;4982273;28;20048;-81
2023/04/30 03:51:38;;;;;;;9.32;4.78;;;7.20;87.10;;;;;;4998580;28;20045;-82
2023/04/30 03:54:07;;;;;;;9.82;4.47;;;7.10;87.10;;;;;;5014371;28;20062;-78
2023/04/30 03:56:34;;;;;;;10.85;4.57;;;7.10;87.20;;;;;;4981720;28;20052;-82
2023/04/30 03:59:00;;;;;;;11.73;4.72;;;7.10;87.20;;;;;;5014377;28;20050;-80
2023/04/30 04:01:27;;;;;;;9.18;5.10;;;7.00;87.30;;;;;;4998023;28;20049;-81
2023/04/30 04:03:53;;;;;;;15.73;5.57;;;7.00;87.30;;;;;;5014014;28;20116;-81
2023/04/30 04:06:19;;;;;;;12.82;6.22;;;7.00;87.40;;;;;;5014432;28;20492;-84
2023/04/30 04:08:45;;;;;;;11.80;5.05;;;7.00;87.40;;;;;;4997887;28;20191;-82
2023/04/30 04:11:11;;;;;;;11.90;5.55;;;7.00;87.50;;;;;;5013709;28;20132;-82
2023/04/30 04:13:37;;;;;;;9.20;5.82;;;7.00;87.50;;;;;;4998048;28;20041;-81
2023/04/30 04:16:03;;;;;;;8.93;6.30;;;7.00;87.60;;;;;;4982039;28;20038;-82
2023/04/30 04:18:29;;;;;;;12.02;5.93;;;6.90;87.70;;;;;;4998248;28;20391;-79
2023/04/30 04:20:55;;;;;;;9.52;5.60;;;6.90;87.70;;;;;;4997853;28;20038;-81
2023/04/30 04:23:21;;;;;;;10.35;5.40;;;6.90;87.70;;;;;;4997705;28;20045;-79
2023/04/30 04:25:48;;;;;;;12.77;6.05;;;6.80;87.80;;;;;;4981533;28;20039;-79
2023/04/30 04:28:15;;;;;;;12.18;5.63;;;6.80;88.30;;;;;;5014172;28;20398;-81
2023/04/30 04:30:42;;;;;;;11.82;5.88;;;6.90;88.60;;;;;;5013611;28;20042;-80
2023/04/30 04:33:09;;;;;;;10.02;5.55;;;6.90;88.60;;;;;;5013923;28;20033;-79
2023/04/30 04:35:35;;;;;;;10.32;5.13;;;6.90;88.20;;;;;;5013643;28;20505;-79
2023/04/30 04:38:01;;;;;;;10.52;5.63;;;6.90;88.10;;;;;;4997257;28;20056;-81
2023/04/30 04:40:27;;;;;;;10.63;5.35;;;6.90;88.50;;;;;;4981287;28;20030;-81
2023/04/30 04:42:54;;;;;;;8.75;5.05;;;6.90;88.50;;;;;;4981516;28;20041;-81
2023/04/30 04:45:20;;;;;;;9.85;5.15;;;6.90;88.20;;;;;;5013774;28;20088;-81
2023/04/30 04:47:47;;;;;;;15.60;6.32;;;6.90;88.50;;;;;;4997652;28;20049;-80
2023/04/30 04:50:13;;;;;;;13.95;5.93;;;6.90;89.00;;;;;;5013968;28;20168;-82
2023/04/30 04:52:39;;;;;;;8.48;5.40;;;6.90;89.20;;;;;;5013372;28;20089;-79
2023/04/30 04:55:06;;;;;;;9.65;5.75;;;6.90;89.00;;;;;;5013489;28;20046;-80
2023/04/30 04:57:31;;;;;;;9.35;5.40;;;6.90;88.60;;;;;;4997417;28;20089;-82
2023/04/30 04:59:57;;;;;;;11.55;5.28;;;6.90;88.40;;;;;;4997278;28;20069;-80
2023/04/30 05:02:23;;;;;;;12.23;5.95;;;6.80;88.80;;;;;;4981092;28;20045;-80
2023/04/30 05:04:49;;;;;;;12.05;5.85;;;6.90;88.90;;;;;;4997336;28;20102;-82
2023/04/30 05:07:16;;;;;;;14.65;5.85;;;6.80;88.80;;;;;;4997449;28;20055;-80
2023/04/30 05:09:46;;;;;;;11.35;5.75;;;6.90;88.60;;;;;;4997093;28;20429;-82
2023/04/30 05:12:12;;;;;;;9.35;5.28;;;6.90;88.50;;;;;;5013110;28;20052;-79
2023/04/30 05:14:38;;;;;;;9.90;5.45;;;6.90;88.50;;;;;;4997227;28;20041;-79
2023/04/30 05:17:04;;;;;;;9.48;5.18;;;7.00;88.70;;;;;;5013104;28;20443;-82
2023/04/30 05:19:29;;;;;;;13.10;4.93;;;7.00;88.80;;;;;;5013172;28;20046;-83
2023/04/30 05:21:55;;;;;;;7.47;5.22;;;7.00;88.90;;;;;;4996296;28;20046;-81
2023/04/30 05:24:21;;;;;;;12.02;5.32;;;7.00;88.70;;;;;;4996751;28;20101;-81
2023/04/30 05:26:47;;;;;;;15.15;5.40;;;7.00;88.60;;;;;;4996701;28;20041;-81
2023/04/30 05:29:12;;;;;;;12.75;5.47;;;7.10;88.30;;;;;;4996622;28;20128;-81
2023/04/30 05:31:38;;;;;;;9.60;4.68;;;7.10;88.50;;;;;;4996556;28;20042;-81
2023/04/30 05:34:04;;;;;;;12.48;5.20;;;7.10;88.30;;;;;;4996553;28;20111;-79
2023/04/30 05:36:30;;;;;;;12.35;4.82;;;7.10;88.40;;;;;;4996499;28;20125;-80
2023/04/30 05:38:56;;;;;;;13.57;4.68;;;7.10;88.60;;;;;;4996657;28;20042;-80
2023/04/30 05:41:22;;;;;;;11.60;4.57;;;7.10;88.80;;;;;;5013134;28;20092;-79
2023/04/30 05:43:48;;;;;;;9.13;4.88;;;7.10;88.50;;;;;;4980306;28;20551;-83
2023/04/30 05:46:13;;;;;;;13.85;4.65;;;7.10;88.60;;;;;;4996439;28;20042;-80
2023/04/30 05:48:39;;;;;;;11.40;4.80;;;7.20;88.60;;;;;;4996438;28;20041;-81
2023/04/30 05:51:06;;;;;;;9.95;4.13;;;7.20;88.90;;;;;;4996519;28;20060;-79
2023/04/30 05:53:31;;;;;;;6.88;2.97;;;7.30;89.00;;;;;;4996192;28;20061;-80
2023/04/30 05:55:57;;;;;;;10.23;4.80;;;7.30;89.10;;;;;;5012681;28;20042;-78
2023/04/30 05:58:24;;;;;;;7.10;4.32;;;7.40;89.20;;;;;;5012749;28;20076;-82
2023/04/30 06:00:50;;;;;;;13.18;4.85;;;7.40;89.10;;;;;;4998880;28;20037;-80
2023/04/30 06:03:20;;;;;;;7.80;4.65;;;7.50;89.00;;;;;;5018264;28;20038;-82
2023/04/30 06:05:46;;;;;;;9.90;4.60;;;7.60;88.90;;;;;;5000035;28;20042;-82
2023/04/30 06:08:12;;;;;;;11.90;5.57;;;7.60;88.80;;;;;;5012404;28;20037;-80
2023/04/30 06:10:38;;;;;;;12.68;6.15;;;7.70;88.80;;;;;;5021599;28;20045;-79
2023/04/30 06:13:05;;;;;;;12.18;5.32;;;7.80;88.80;;;;;;5021484;28;20032;-80
2023/04/30 06:15:30;;;;;;;7.57;5.25;;;7.80;88.70;;;;;;5021479;28;20076;-81
2023/04/30 06:17:56;;;;;;;13.85;5.20;;;7.90;88.50;;;;;;5014209;28;20045;-81
2023/04/30 06:20:22;;;;;;;11.57;4.40;;;7.90;88.60;;;;;;4998859;28;20046;-80
2023/04/30 06:22:48;;;;;;;11.73;4.57;;;8.00;88.90;;;;;;5028818;28;20120;-82
2023/04/30 06:25:13;;;;;;;9.48;4.25;;;8.00;88.80;;;;;;5001610;28;20089;-80
2023/04/30 06:27:39;;;;;;;13.05;4.78;;;8.10;88.60;;;;;;4998075;28;20038;-81
2023/04/30 06:30:06;;;;;;;13.65;4.75;;;8.20;88.70;;;;;;4999283;28;20045;-80
2023/04/30 06:32:31;;;;;;;11.43;4.80;;;8.30;88.50;;;;;;4980402;28;20073;-83
2023/04/30 06:34:57;;;;;;;10.20;4.40;;;8.30;88.30;;;;;;5016700;28;20080;-80
2023/04/30 06:37:23;;;;;;;11.27;4.68;;;8.40;88.10;;;;;;5000023;28;20049;-82
2023/04/30 06:39:50;;;;;;;14.45;5.18;;;8.50;88.20;;;;;;4999715;28;20042;-79
2023/04/30 06:42:16;;;;;;;13.48;5.80;;;8.50;88.10;;;;;;5000435;28;20430;-83
2023/04/30 06:44:41;;;;;;;9.07;4.30;;;8.50;88.10;;;;;;5016315;28;20042;-82
2023/04/30 06:47:07;;;;;;;11.25;5.53;;;8.60;87.90;;;;;;4999707;28;20133;-80
2023/04/30 06:49:33;;;;;;;10.38;4.20;;;8.60;87.70;;;;;;4999819;28;20045;-81
2023/04/30 06:51:59;;;;;;;12.98;4.28;;;8.60;87.60;;;;;;4999918;28;20053;-83
2023/04/30 06:54:26;;;;;;;8.25;3.20;;;8.70;87.60;;;;;;4999537;28;20057;-81
2023/04/30 06:56:52;;;;;;;10.77;3.20;;;8.80;87.40;;;;;;5016094;28;20042;-82
2023/04/30 06:59:18;;;;;;;12.82;3.80;;;8.90;87.30;;;;;;5015773;28;20124;-79
2023/04/30 07:01:44;;;;;;;6.70;3.42;;;9.00;87.10;;;;;;4999676;28;20184;-80
2023/04/30 07:04:11;;;;;;;15.60;5.45;;;9.00;86.90;;;;;;4999395;28;20100;-80
2023/04/30 07:06:36;;;;;;;12.15;5.25;;;9.00;86.60;;;;;;5015572;28;20414;-83
2023/04/30 07:09:02;;;;;;;12.98;5.13;;;9.10;86.50;;;;;;4983068;28;20050;-83
2023/04/30 07:11:28;;;;;;;10.88;5.38;;;9.10;85.80;;;;;;5015781;28;20042;-83
2023/04/30 07:13:54;;;;;;;12.00;4.97;;;9.20;85.30;;;;;;4999491;28;20371;-82
2023/04/30 07:16:20;;;;;;;10.75;4.25;;;9.20;85.60;;;;;;4998989;28;20038;-82
2023/04/30 07:18:47;;;;;;;9.77;3.90;;;9.40;85.90;;;;;;4983063;28;20072;-82
2023/04/30 07:21:14;;;;;;;10.82;3.92;;;9.50;85.70;;;;;;5015520;28;20441;-82
2023/04/30 07:23:39;;;;;;;8.55;3.80;;;9.60;85.40;;;;;;4998887;28;20053;-82
2023/04/30 07:26:05;;;;;;;11.00;4.30;;;9.70;85.10;;;;;;4998978;28;20046;-82
2023/04/30 07:28:31;;;;;;;15.07;6.00;;;9.80;84.80;;;;;;5015373;28;20132;-83
2023/04/30 07:30:56;;;;;;;9.15;3.55;;;9.80;84.10;;;;;;4998816;28;20099;-82
2023/04/30 07:33:22;;;;;;;10.18;3.72;;;9.90;83.30;;;;;;4999142;28;20049;-82
2023/04/30 07:35:48;;;;;;;9.35;4.75;;;9.90;82.40;;;;;;5014991;28;20069;-82
2023/04/30 07:38:14;;;;;;;9.15;3.75;;;10.00;83.70;;;;;;4998711;28;20038;-81
2023/04/30 07:40:39;;;;;;;10.55;3.67;;;10.10;82.90;;;;;;4998668;28;20034;-83
2023/04/30 07:43:05;;;;;;;10.02;4.55;;;10.00;81.50;;;;;;4998683;28;20131;-80
2023/04/30 07:45:32;;;;;;;9.52;3.25;;;10.00;81.30;;;;;;4998415;28;20052;-81
2023/04/30 07:47:58;;;;;;;9.15;3.92;;;10.10;82.00;;;;;;5014765;28;20077;-83
2023/04/30 07:50:24;;;;;;;8.35;3.90;;;10.20;82.50;;;;;;5014841;28;20137;-82
2023/04/30 07:52:50;;;;;;;11.02;3.42;;;10.30;82.60;;;;;;4998309;28;20054;-82
2023/04/30 07:55:15;;;;;;;11.75;3.85;;;10.40;82.70;;;;;;4981947;28;20049;-80
2023/04/30 07:57:41;;;;;;;7.78;3.00;;;10.60;82.40;;;;;;4998057;28;20073;-81
2023/04/30 08:00:07;;;;;;;12.57;4.25;;;10.70;82.20;;;;;;4998113;28;20038;-82
2023/04/30 08:02:33;;;;;;;12.73;4.32;;;10.70;78.80;;;;;;4982114;28;20141;-79
2023/04/30 08:04:59;;;;;;;8.57;4.00;;;10.90;80.00;;;;;;4998143;28;20546;-80
2023/04/30 08:07:24;;;;;;;8.13;4.43;;;10.90;79.70;;;;;;4997856;28;20117;-82
2023/04/30 08:09:50;;;;;;;8.00;3.97;;;11.10;79.60;;;;;;5014428;28;20042;-81
2023/04/30 08:12:17;;;;;;;10.15;3.63;;;11.30;80.50;;;;;;4998054;28;20168;-82
2023/04/30 08:14:42;;;;;;;10.38;3.88;;;11.30;79.50;;;;;;4981739;28;20044;-81
2023/04/30 08:17:08;;;;;;;8.88;3.67;;;11.40;79.90;;;;;;5014394;28;20090;-81
2023/04/30 08:19:34;;;;;;;7.78;4.13;;;11.40;79.40;;;;;;4981747;28;20545;-81
2023/04/30 08:22:00;;;;;;;11.00;3.28;;;11.50;78.80;;;;;;4997498;28;20041;-79
2023/04/30 08:24:26;;;;;;;6.35;3.15;;;11.50;78.80;;;;;;4981667;28;20069;-80
2023/04/30 08:26:51;;;;;;;14.23;4.53;;;11.40;76.90;;;;;;4997549;28;20478;-81
2023/04/30 08:29:17;;;;;;;11.02;3.17;;;11.40;76.30;;;;;;5013938;28;20099;-81
2023/04/30 08:31:43;;;;;;;11.45;3.65;;;11.50;77.10;;;;;;5014012;28;20041;-81
2023/04/30 08:34:08;;;;;;;8.55;3.03;;;11.50;76.00;;;;;;4997340;28;20038;-81
2023/04/30 08:36:34;;;;;;;7.72;3.42;;;11.50;75.90;;;;;;4997688;28;20034;-81
2023/04/30 08:39:01;;;;;;;9.73;3.35;;;11.60;77.50;;;;;;4997326;28;20394;-82
2023/04/30 08:41:31;;;;;;;9.85;2.80;;;11.80;77.40;;;;;;4981309;28;20046;-80
2023/04/30 08:44:00;;;;;;;9.98;3.40;;;11.70;75.90;;;;;;5013575;28;20044;-81
2023/04/30 08:46:26;;;;;;;8.48;2.95;;;12.00;77.10;;;;;;4997205;28;20050;-81
2023/04/30 08:48:52;;;;;;;7.78;2.47;;;12.00;75.40;;;;;;4997515;28;20049;-82
2023/04/30 08:51:19;;;;;;;6.75;2.90;;;12.20;75.00;;;;;;4997237;28;20049;-80
2023/04/30 08:53:46;;;;;;;11.15;3.33;;;12.20;73.70;;;;;;4980789;28;20457;-80
2023/04/30 08:56:12;;;;;;;7.47;3.30;;;12.10;73.50;;;;;;5012571;28;20038;-81
2023/04/30 08:58:39;;;;;;;11.35;3.45;;;12.20;73.50;;;;;;4997224;28;20045;-81
2023/04/30 09:01:07;;;;;;;9.75;3.65;;;12.30;74.60;;;;;;5013650;28;20140;-83
2023/04/30 09:03:33;;;;;;;5.15;2.30;;;12.40;74.30;;;;;;5013193;28;20042;-82
2023/04/30 09:05:59;;;;;;;7.30;2.90;;;12.50;74.50;;;;;;4997204;28;20037;-80
2023/04/30 09:08:45;;;;;;;6.20;3.30;;;12.50;72.80;;;;;;4996738;28;20045;-78
2023/04/30 09:11:27;;;;;;;8.85;3.13;;;12.50;73.50;;;;;;4996645;28;20048;-81
2023/04/30 09:14:01;;;;;;;8.80;3.25;;;12.50;72.80;;;;;;5012998;28;20042;-80
2023/04/30 09:16:31;;;;;;;8.23;3.67;;;12.60;73.30;;;;;;5012893;28;20045;-81
2023/04/30 09:18:58;;;;;;;7.72;3.40;;;12.80;70.30;;;;;;4997035;28;20395;-82
2023/04/30 09:21:35;;;;;;;6.05;2.17;;;13.10;72.20;;;;;;4996780;28;20037;-81
2023/04/30 09:24:02;;;;;;;5.15;2.38;;;13.20;68.60;;;;;;4996670;28;20056;-80
2023/04/30 09:26:36;;;;;;;7.43;2.40;;;13.20;67.30;;;;;;4996612;28;20447;-79
2023/04/30 09:29:06;;;;;;;10.90;3.00;;;13.10;68.40;;;;;;4996832;28;20459;-82
2023/04/30 09:31:42;;;;;;;5.75;2.72;;;13.00;66.50;;;;;;4980840;28;20042;-80
2023/04/30 09:34:07;;;;;;;5.05;2.13;;;13.20;68.70;;;;;;4996493;28;20041;-81
2023/04/30 09:36:34;;;;;;;11.25;2.60;;;13.40;68.20;;;;;;4980464;28;20041;-83
2023/04/30 09:39:16;;;;;;;11.52;2.90;;;13.30;66.60;;;;;;4996405;28;20042;-83
2023/04/30 09:41:42;;;;;;;9.35;3.53;;;13.60;69.20;;;;;;4996380;28;20100;-80
2023/04/30 09:44:28;;;;;;;9.95;3.50;;;13.70;67.80;;;;;;4996210;28;20042;-81
2023/04/30 09:46:56;;;;;;;7.15;2.38;;;13.80;66.20;;;;;;5012433;28;20193;-82
2023/04/30 09:49:22;;;;;;;9.43;2.72;;;14.00;68.30;;;;;;5012464;28;20501;-82
2023/04/30 09:51:58;;;;;;;7.00;2.67;;;14.00;67.40;;;;;;4995993;28;20042;-80
2023/04/30 09:54:31;;;;;;;8.55;3.13;;;14.10;66.80;;;;;;4996061;28;20045;-81
2023/04/30 09:56:58;;;;;;;9.70;3.33;;;14.20;67.30;;;;;;5012371;28;20049;-81
2023/04/30 09:59:30;;;;;;;8.40;4.22;;;14.30;68.10;;;;;;4996052;28;20034;-80
2023/04/30 10:01:59;;;;;;;8.88;3.95;;;14.10;65.20;;;;;;4996272;28;20179;-81
2023/04/30 10:04:36;;;;;;;9.60;3.83;;;13.80;65.40;;;;;;5012346;28;20042;-81
2023/04/30 10:07:23;;;;;;;9.88;3.53;;;13.70;66.40;;;;;;4996155;28;20368;-82
2023/04/30 10:09:54;;;;;;;6.93;2.90;;;13.90;66.40;;;;;;5011546;28;20085;-83
2023/04/30 10:12:26;;;;;;;7.80;2.45;;;14.20;66.80;;;;;;5012111;28;20491;-79
2023/04/30 10:14:56;;;;;;;7.90;2.72;;;14.40;65.70;;;;;;5012193;28;20540;-80
2023/04/30 10:17:25;;;;;;;7.03;2.30;;;14.70;65.80;;;;;;5012088;28;20176;-82
2023/04/30 10:19:53;;;;;;;9.80;3.97;;;15.00;66.40;;;;;;5011800;28;20045;-80
2023/04/30 10:22:19;;;;;;;6.53;3.13;;;15.30;65.90;;;;;;4995384;28;20433;-81
2023/04/30 10:24:47;;;;;;;12.55;3.38;;;15.40;66.00;;;;;;5011931;28;20076;-82
2023/04/30 10:27:13;;;;;;;8.40;2.70;;;15.60;65.30;;;;;;5012018;28;20405;-80
2023/04/30 10:29:39;;;;;;;9.93;4.15;;;15.70;62.10;;;;;;4995807;28;20081;-82
2023/04/30 10:32:06;;;;;;;6.85;3.17;;;15.60;62.20;;;;;;4995655;28;20077;-81
2023/04/30 10:34:58;;;;;;;9.20;3.10;;;15.50;62.20;;;;;;5012139;28;20038;-80
2023/04/30 10:37:39;;;;;;;5.78;2.75;;;15.70;63.40;;;;;;5012120;28;20099;-80
2023/04/30 10:40:08;;;;;;;6.35;2.58;;;15.60;60.60;;;;;;5011713;28;20046;-81
2023/04/30 10:42:34;;;;;;;9.15;2.83;;;15.70;62.40;;;;;;5011753;28;20042;-81
2023/04/30 10:45:02;;;;;;;4.72;2.40;;;15.70;62.50;;;;;;5011604;28;20050;-79
2023/04/30 10:47:31;;;;;;;4.82;2.88;;;15.80;63.00;;;;;;5011665;28;20041;-79
2023/04/30 10:50:07;;;;;;;7.55;3.65;;;15.90;61.80;;;;;;4995406;28;20046;-81
2023/04/30 10:52:36;;;;;;;6.20;3.00;;;16.20;63.60;;;;;;5011652;28;20046;-81
2023/04/30 10:55:09;;;;;;;6.38;2.40;;;16.40;63.80;;;;;;5011589;28;20058;-80
2023/04/30 10:57:42;;;;;;;5.18;2.40;;;16.50;62.10;;;;;;4995442;28;20137;-82
2023/04/30 11:00:13;;;;;;;8.40;2.72;;;16.60;61.60;;;;;;4995850;28;20493;-81
2023/04/30 11:02:47;;;;;;;4.05;2.67;;;16.50;61.30;;;;;;4995400;28;20550;-82
2023/04/30 11:05:17;;;;;;;6.63;2.45;;;16.70;61.30;;;;;;4979861;28;20572;-80
2023/04/30 11:07:54;;;;;;;4.80;2.40;;;16.90;62.50;;;;;;4995121;28;20168;-80
2023/04/30 11:10:26;;;;;;;4.97;2.33;;;17.00;62.50;;;;;;4995432;28;20064;-81
2023/04/30 11:12:53;;;;;;;5.88;2.40;;;17.00;59.70;;;;;;5011530;28;20046;-82
2023/04/30 11:15:23;;;;;;;3.80;2.05;;;17.00;61.00;;;;;;4995779;28;20042;-80
2023/04/30 11:17:49;;;;;;;3.45;2.13;;;17.00;59.70;;;;;;5011462;28;20140;-79
2023/04/30 11:20:21;;;;;;;3.72;1.73;;;17.10;60.40;;;;;;5014570;28;20125;-83
2023/04/30 11:22:47;;;;;;;3.92;1.95;;;17.00;60.70;;;;;;5015163;28;20046;-82
2023/04/30 11:25:18;;;;;;;2.38;1.27;;;17.20;60.20;;;;;;5015160;28;20136;-81
2023/04/30 11:27:44;;;;;;;2.97;2.00;;;17.30;60.30;;;;;;4999132;28;20046;-81
2023/04/30 11:30:13;;;;;;;4.68;1.88;;;17.40;60.20;;;;;;5015120;28;20042;-81
2023/04/30 11:32:42;;;;;;;4.25;2.17;;;17.40;57.20;;;;;;4998648;28;20133;-80
2023/04/30 11:35:08;;;;;;;3.38;1.80;;;17.60;60.00;;;;;;5014932;28;20120;-80
2023/04/30 11:37:36;;;;;;;3.58;1.75;;;17.70;60.50;;;;;;4998553;28;20041;-81
2023/04/30 11:40:07;;;;;;;2.58;1.50;;;18.10;61.10;;;;;;4998534;28;20052;-80
2023/04/30 11:42:33;;;;;;;3.45;1.65;;;18.30;59.30;;;;;;4982280;28;20041;-80
2023/04/30 11:45:10;;;;;;;5.90;1.58;;;18.50;60.40;;;;;;5014809;28;20130;-80
2023/04/30 11:47:45;;;;;;;2.47;1.42;;;18.70;59.50;;;;;;4998497;28;20088;-79
2023/04/30 11:50:16;;;;;;;3.00;1.85;;;18.90;59.30;;;;;;5014776;28;20049;-81
2023/04/30 11:52:48;;;;;;;2.58;1.77;;;18.80;56.70;;;;;;5014562;28;20042;-80
2023/04/30 11:55:16;;;;;;;2.40;1.83;;;18.50;57.40;;;;;;4999036;28;20058;-80
2023/04/30 11:57:48;;;;;;;3.47;1.35;;;18.40;56.20;;;;;;4997954;28;20033;-80
2023/04/30 12:00:34;;;;;;;4.85;1.52;;;18.40;56.20;;;;;;4982360;28;20038;-80
2023/04/30 12:03:02;;;;;;;2.08;1.45;;;18.30;56.20;;;;;;5014088;28;20073;-80
2023/04/30 12:05:28;;;;;;;2.72;1.40;;;18.40;56.30;;;;;;4998698;28;20045;-81
2023/04/30 12:08:08;;;;;;;2.10;1.40;;;18.60;57.10;;;;;;5014455;28;20056;-80
2023/04/30 12:10:35;;;;;;;3.38;1.40;;;18.90;57.60;;;;;;4998456;28;20124;-80
2023/04/30 12:13:01;;;;;;;2.15;1.20;;;19.10;57.10;;;;;;5014549;28;20050;-80
2023/04/30 12:15:27;;;;;;;2.70;1.33;;;19.20;55.40;;;;;;5014526;28;20041;-79
2023/04/30 12:18:12;;;;;;;3.95;1.58;;;19.60;56.20;;;;;;4998092;28;20505;-81
2023/04/30 12:20:39;;;;;;;4.00;1.65;;;19.70;56.70;;;;;;4997831;28;20481;-80
2023/04/30 12:23:05;;;;;;;1.85;1.40;;;19.70;55.40;;;;;;5014194;28;20045;-79
2023/04/30 12:25:42;;;;;;;4.43;1.90;;;19.90;55.40;;;;;;5014236;28;20050;-81
2023/04/30 12:28:09;;;;;;;2.75;1.30;;;19.90;53.00;;;;;;5014267;28;20045;-82
2023/04/30 12:30:35;;;;;;;3.22;1.30;;;19.60;53.30;;;;;;5012969;28;20135;-81
2023/04/30 12:33:02;;;;;;;2.22;1.50;;;19.40;54.90;;;;;;4981135;28;20085;-82
2023/04/30 12:35:32;;;;;;;4.05;1.60;;;19.70;54.60;;;;;;4997590;28;20042;-83
2023/04/30 12:38:08;;;;;;;3.70;1.90;;;19.90;55.80;;;;;;5013628;28;20048;-78
2023/04/30 12:40:34;;;;;;;2.72;1.60;;;20.20;55.80;;;;;;4997225;28;20042;-80
2023/04/30 12:43:01;;;;;;;3.30;1.58;;;20.20;56.70;;;;;;5013547;28;20546;-80
2023/04/30 12:45:49;;;;;;;4.15;1.55;;;20.00;56.20;;;;;;4997358;28;20057;-79
2023/04/30 12:48:16;;;;;;;1.98;1.52;;;19.90;55.20;;;;;;4997301;28;20128;-81
2023/04/30 12:50:46;;;;;;;5.72;1.65;;;19.80;56.00;;;;;;5013744;28;20390;-80
2023/04/30 12:53:11;;;;;;;1.95;1.33;;;20.20;56.90;;;;;;4996991;28;20041;-80
2023/04/30 12:55:38;;;;;;;2.47;1.33;;;20.40;54.20;;;;;;4980518;28;20068;-79